Time;durP1;ratioP1;P1;durP2;ratioP2;P2;SDS_P1;SDS_P2;PMS_P1;PMS_P2;Temp;Humidity;BMP_temperature;BMP_pressure;BME280_temperature;BME280_humidity;BME280_pressure;Samples;Min_cycle;Max_cycle;Signal;HPM_P1;HPM_P2
2022/01/20 00:00:19;;;;;;;8.50;5.20;;;;;;;-141.50;100.00;63355.56;5022528;28;20069;-84
2022/01/20 00:02:50;;;;;;;9.70;5.30;;;;;;;-141.50;100.00;63355.56;5022009;28;20061;-82
2022/01/20 00:27:12;;;;;;;10.33;5.23;;;;;;;-141.50;100.00;63355.56;5016687;28;20058;-86
2022/01/20 00:30:08;;;;;;;9.05;4.70;;;;;;;-141.50;100.00;63355.56;4998426;28;20065;-82
2022/01/20 00:35:25;;;;;;;7.97;4.00;;;;;;;-141.50;100.00;63355.56;5006902;28;20100;-83
2022/01/20 00:37:52;;;;;;;7.15;4.72;;;;;;;-141.50;100.00;63355.56;5002581;28;20065;-84
2022/01/20 00:40:23;;;;;;;7.70;4.60;;;;;;;-141.50;100.00;63355.56;4997171;28;20140;-85
2022/01/20 00:42:51;;;;;;;10.90;4.20;;;;;;;-141.50;100.00;63355.56;5018980;28;20046;-86
2022/01/20 00:45:18;;;;;;;9.05;4.53;;;;;;;-141.50;100.00;63355.56;5016908;28;20506;-85
2022/01/20 00:47:44;;;;;;;7.10;4.25;;;;;;;-141.50;100.00;63355.56;5016396;28;20433;-83
2022/01/20 00:50:12;;;;;;;6.10;3.60;;;;;;;-141.50;100.00;63355.56;5016204;28;20057;-82
2022/01/20 00:52:39;;;;;;;9.18;4.80;;;;;;;-141.50;100.00;63355.56;4998670;28;20065;-83
2022/01/20 00:55:06;;;;;;;7.18;4.53;;;;;;;-141.50;100.00;63355.56;5013620;28;20457;-85
2022/01/20 00:57:35;;;;;;;6.00;3.92;;;;;;;-141.50;100.00;63355.56;4997976;28;20077;-83
2022/01/20 01:00:06;;;;;;;6.97;4.40;;;;;;;-141.50;100.00;63355.56;5015467;28;20053;-84
2022/01/20 01:02:35;;;;;;;6.13;4.00;;;;;;;-141.50;100.00;63355.56;4999937;28;20104;-84
2022/01/20 01:05:08;;;;;;;6.22;4.07;;;;;;;-141.50;100.00;63355.56;4994650;28;20076;-85
2022/01/20 01:10:05;;;;;;;5.53;3.80;;;;;;;-141.50;100.00;63355.56;5012684;28;20050;-84
2022/01/20 01:12:40;;;;;;;8.20;3.88;;;;;;;-141.50;100.00;63355.56;5012673;28;20041;-82
2022/01/20 01:15:13;;;;;;;;;;;;;;;-141.50;100.00;63355.56;4996990;28;20104;-82
2022/01/20 01:20:27;;;;;;;6.18;3.38;;;;;;;-141.50;100.00;63355.56;5011212;28;20135;-83
2022/01/20 01:22:56;;;;;;;6.28;3.97;;;;;;;-141.50;100.00;63355.56;5012431;28;20466;-81
2022/01/20 01:25:23;;;;;;;6.72;4.43;;;;;;;-141.50;100.00;63355.56;4994597;28;20233;-82
2022/01/20 01:27:49;;;;;;;5.72;3.80;;;;;;;-141.50;100.00;63355.56;4995045;28;20080;-83
2022/01/20 01:33:04;;;;;;;6.80;3.97;;;;;;;-141.50;100.00;63355.56;5015299;28;20391;-83
2022/01/20 01:35:33;;;;;;;5.72;3.78;;;;;;;-141.50;100.00;63355.56;5014434;28;20100;-84
2022/01/20 01:40:34;;;;;;;6.45;3.70;;;;;;;-141.50;100.00;63355.56;5017335;28;20111;-83
2022/01/20 01:43:07;;;;;;;6.70;3.92;;;;;;;-141.50;100.00;63355.56;5017143;28;20046;-86
2022/01/20 01:45:37;;;;;;;5.30;3.40;;;;;;;-141.50;100.00;63355.56;5011694;28;20149;-82
2022/01/20 01:48:04;;;;;;;8.02;4.03;;;;;;;-141.50;100.00;63355.56;4998533;28;20123;-84
2022/01/20 01:50:31;;;;;;;7.55;3.78;;;;;;;-141.50;100.00;63355.56;5017022;28;20053;-82
2022/01/20 01:53:02;;;;;;;8.18;4.07;;;;;;;-141.50;100.00;63355.56;5016292;28;20073;-82
2022/01/20 01:55:30;;;;;;;6.50;3.92;;;;;;;-141.50;100.00;63355.56;5016461;28;20049;-81
2022/01/20 01:57:57;;;;;;;9.25;4.57;;;;;;;-141.50;100.00;63355.56;5017160;28;20560;-83
2022/01/20 02:00:24;;;;;;;8.85;4.93;;;;;;;-141.50;100.00;63355.56;4999250;28;20491;-83
2022/01/20 02:02:51;;;;;;;9.20;5.03;;;;;;;-141.50;100.00;63355.56;4999204;28;20419;-82
2022/01/20 02:05:19;;;;;;;7.85;4.63;;;;;;;-141.50;100.00;63355.56;4999510;28;20141;-82
2022/01/20 02:18:49;;;;;;;11.60;3.00;;;;;;;-141.50;100.00;63355.56;5018564;28;20054;-85
2022/01/20 02:21:16;;;;;;;19.02;3.63;;;;;;;-141.50;100.00;63355.56;5001596;28;20494;-84
2022/01/20 02:23:44;;;;;;;18.35;3.47;;;;;;;-141.50;100.00;63355.56;5026364;28;20050;-84
2022/01/20 02:26:12;;;;;;;19.42;3.30;;;;;;;-141.50;100.00;63355.56;5016921;28;20127;-85
2022/01/20 02:28:39;;;;;;;23.40;4.00;;;;;;;-141.50;100.00;63355.56;5001017;28;20054;-84
2022/01/20 02:31:07;;;;;;;16.67;4.60;;;;;;;-141.50;100.00;63355.56;5001124;28;20057;-84
2022/01/20 02:33:36;;;;;;;18.08;4.75;;;;;;;-141.50;100.00;63355.56;5018634;28;20085;-83
2022/01/20 02:36:07;;;;;;;15.40;4.78;;;;;;;-141.50;100.00;63355.56;5022645;28;20596;-83
2022/01/20 02:46:37;;;;;;;19.90;5.07;;;;;;;-141.50;100.00;63355.56;5019433;28;20311;-84
2022/01/20 02:49:07;;;;;;;17.25;4.70;;;;;;;-141.50;100.00;63355.56;5001078;28;20360;-84
2022/01/20 02:51:36;;;;;;;20.10;4.50;;;;;;;-141.50;100.00;63355.56;5015259;28;20062;-83
2022/01/20 02:54:03;;;;;;;14.75;3.90;;;;;;;-141.50;100.00;63355.56;5013805;28;20087;-83
2022/01/20 02:56:31;;;;;;;16.98;3.78;;;;;;;-141.50;100.00;63355.56;4997398;28;20050;-82
2022/01/20 02:58:57;;;;;;;19.90;3.70;;;;;;;-141.50;100.00;63355.56;5018269;28;20049;-84
2022/01/20 03:01:24;;;;;;;15.07;2.75;;;;;;;-141.50;100.00;63355.56;4999780;28;20068;-87
2022/01/20 03:03:51;;;;;;;23.15;3.47;;;;;;;-141.50;100.00;63355.56;5015763;28;20056;-84
2022/01/20 03:06:17;;;;;;;14.38;2.35;;;;;;;-141.50;100.00;63355.56;5016284;28;20104;-86
2022/01/20 03:08:44;;;;;;;21.98;2.85;;;;;;;-141.50;100.00;63355.56;5012853;28;20077;-85
2022/01/20 03:11:12;;;;;;;19.08;2.75;;;;;;;-141.50;100.00;63355.56;5013164;28;20050;-85
2022/01/20 03:13:39;;;;;;;20.38;2.80;;;;;;;-141.50;100.00;63355.56;5011988;28;20080;-85
2022/01/20 03:16:06;;;;;;;26.20;3.17;;;;;;;-141.50;100.00;63355.56;5014102;28;20081;-83
2022/01/20 03:18:32;;;;;;;16.35;2.28;;;;;;;-141.50;100.00;63355.56;4997511;28;20110;-84
2022/01/20 03:20:59;;;;;;;18.20;2.50;;;;;;;-141.50;100.00;63355.56;5014296;28;20189;-85
2022/01/20 03:23:26;;;;;;;15.80;3.30;;;;;;;-141.50;100.00;63355.56;5014548;28;20498;-83
2022/01/20 03:25:52;;;;;;;25.48;3.47;;;;;;;-141.50;100.00;63355.56;5015512;28;20115;-83
2022/01/20 03:28:19;;;;;;;14.20;2.13;;;;;;;-141.50;100.00;63355.56;5015241;28;20499;-83
2022/01/20 03:30:45;;;;;;;17.65;2.50;;;;;;;-141.50;100.00;63355.56;5016578;28;20053;-83
2022/01/20 03:33:12;;;;;;;17.92;2.20;;;;;;;-141.50;100.00;63355.56;5016214;28;20092;-86
2022/01/20 03:35:41;;;;;;;15.35;2.10;;;;;;;-141.50;100.00;63355.56;4998712;28;20130;-84
2022/01/20 03:38:08;;;;;;;18.70;2.63;;;;;;;-141.50;100.00;63355.56;4999514;28;20046;-85
2022/01/20 03:40:35;;;;;;;17.02;1.98;;;;;;;-141.50;100.00;63355.56;5012965;28;20506;-84
2022/01/20 03:43:02;;;;;;;20.75;2.47;;;;;;;-141.50;100.00;63355.56;5012656;28;20049;-83
2022/01/20 03:45:29;;;;;;;17.88;2.40;;;;;;;-141.50;100.00;63355.56;4998967;28;20522;-84
2022/01/20 03:48:05;;;;;;;15.98;2.33;;;;;;;-141.50;100.00;63355.56;4996842;28;20265;-83
2022/01/20 03:53:19;;;;;;;18.40;2.13;;;;;;;-141.50;100.00;63355.56;5014453;28;20061;-83
2022/01/20 03:55:46;;;;;;;14.45;2.17;;;;;;;-141.50;100.00;63355.56;5014558;28;20650;-84
2022/01/20 03:58:13;;;;;;;14.30;1.92;;;;;;;-141.50;100.00;63355.56;4996636;28;20061;-85
2022/01/20 04:00:39;;;;;;;26.98;2.58;;;;;;;-141.50;100.00;63355.56;4995568;28;20088;-85
2022/01/20 04:03:06;;;;;;;14.02;1.90;;;;;;;-141.50;100.00;63355.56;5014768;28;20048;-86
2022/01/20 04:05:34;;;;;;;17.02;2.70;;;;;;;-141.50;100.00;63355.56;5012484;28;20053;-83
2022/01/20 04:08:00;;;;;;;16.65;2.20;;;;;;;-141.50;100.00;63355.56;4994192;28;20050;-83
2022/01/20 04:10:27;;;;;;;15.30;2.05;;;;;;;-141.50;100.00;63355.56;4993737;28;20112;-85
2022/01/20 04:12:53;;;;;;;24.10;2.70;;;;;;;-141.50;100.00;63355.56;4994926;28;20103;-85
2022/01/20 04:15:25;;;;;;;27.20;2.50;;;;;;;-141.50;100.00;63355.56;5012813;28;20053;-84
2022/01/20 04:17:55;;;;;;;21.65;2.58;;;;;;;-141.50;100.00;63355.56;5010712;28;20089;-84
2022/01/20 04:20:22;;;;;;;20.23;2.67;;;;;;;-141.50;100.00;63355.56;4994506;28;20072;-85
2022/01/20 04:22:49;;;;;;;16.52;2.50;;;;;;;-141.50;100.00;63355.56;5013509;28;20061;-84
2022/01/20 04:25:15;;;;;;;19.05;2.28;;;;;;;-141.50;100.00;63355.56;5013526;28;20221;-84
2022/01/20 04:27:42;;;;;;;25.23;3.17;;;;;;;-141.50;100.00;63355.56;5010242;28;20104;-84
2022/01/20 04:30:09;;;;;;;18.58;2.70;;;;;;;-141.50;100.00;63355.56;5011293;28;20065;-84
2022/01/20 04:32:35;;;;;;;23.65;3.38;;;;;;;-141.50;100.00;63355.56;5010075;28;20053;-85
2022/01/20 04:35:02;;;;;;;21.85;2.42;;;;;;;-141.50;100.00;63355.56;5011371;28;20406;-85
2022/01/20 04:37:29;;;;;;;15.10;2.30;;;;;;;-141.50;100.00;63355.56;4994588;28;20054;-85
2022/01/20 04:39:56;;;;;;;19.58;2.33;;;;;;;-141.50;100.00;63355.56;4994573;28;20465;-86
2022/01/20 04:42:25;;;;;;;17.98;2.35;;;;;;;-141.50;100.00;63355.56;4993951;28;20628;-85
2022/01/20 04:44:58;;;;;;;22.05;2.65;;;;;;;-141.50;100.00;63355.56;4995052;28;20046;-85
2022/01/20 04:58:28;;;;;;;22.98;2.33;;;;;;;-141.50;100.00;63355.56;5014438;28;20050;-85
2022/01/20 05:00:55;;;;;;;24.20;2.53;;;;;;;-141.50;100.00;63355.56;5010949;28;20054;-85
2022/01/20 05:03:24;;;;;;;23.90;2.92;;;;;;;-141.50;100.00;63355.56;4998896;28;20200;-85
2022/01/20 05:05:51;;;;;;;20.65;2.97;;;;;;;-141.50;100.00;63355.56;5013573;28;20085;-87
2022/01/20 05:08:22;;;;;;;25.70;2.70;;;;;;;-141.50;100.00;63355.56;5014024;28;20050;-87
2022/01/20 05:10:50;;;;;;;24.67;2.60;;;;;;;-141.50;100.00;63355.56;5016762;28;20461;-85
2022/01/20 05:13:33;;;;;;;25.00;3.10;;;;;;;-141.50;100.00;63355.56;5001794;28;20046;-84
2022/01/20 05:16:00;;;;;;;18.00;2.80;;;;;;;-141.50;100.00;63355.56;5011310;28;20119;-84
2022/01/20 05:18:27;;;;;;;14.48;2.28;;;;;;;-141.50;100.00;63355.56;5012685;28;20068;-86
2022/01/20 05:20:54;;;;;;;26.73;3.53;;;;;;;-141.50;100.00;63355.56;5012920;28;20080;-87
2022/01/20 05:23:21;;;;;;;19.73;2.67;;;;;;;-141.50;100.00;63355.56;5014756;28;20285;-84
2022/01/20 05:25:48;;;;;;;22.67;2.30;;;;;;;-141.50;100.00;63355.56;5017393;28;20050;-86
2022/01/20 05:28:15;;;;;;;23.67;2.47;;;;;;;-141.50;100.00;63355.56;4998465;28;20054;-84
2022/01/20 05:30:41;;;;;;;23.33;2.55;;;;;;;-141.50;100.00;63355.56;4999220;28;20046;-85
2022/01/20 05:33:09;;;;;;;15.07;2.45;;;;;;;-141.50;100.00;63355.56;5013134;28;20050;-85
2022/01/20 05:35:36;;;;;;;21.70;2.30;;;;;;;-141.50;100.00;63355.56;5013024;28;20465;-86
2022/01/20 05:38:03;;;;;;;16.52;2.70;;;;;;;-141.50;100.00;63355.56;4997637;28;20053;-87
2022/01/20 05:40:30;;;;;;;24.00;2.55;;;;;;;-141.50;100.00;63355.56;4999854;28;20054;-85
2022/01/20 05:42:56;;;;;;;26.50;2.28;;;;;;;-141.50;100.00;63355.56;5019798;28;20605;-86
2022/01/20 05:45:24;;;;;;;14.93;1.95;;;;;;;-141.50;100.00;63355.56;5016931;28;20096;-82
2022/01/20 05:48:07;;;;;;;25.95;3.17;;;;;;;-141.50;100.00;63355.56;5015494;28;20061;-85
2022/01/20 05:50:34;;;;;;;23.30;2.40;;;;;;;-141.50;100.00;63355.56;5016675;28;20046;-84
2022/01/20 05:53:02;;;;;;;18.15;2.22;;;;;;;-141.50;100.00;63355.56;5016722;28;20042;-84
2022/01/20 05:55:31;;;;;;;30.42;2.90;;;;;;;-141.50;100.00;63355.56;4998279;28;20060;-83
2022/01/20 05:57:58;;;;;;;24.80;2.85;;;;;;;-141.50;100.00;63355.56;4999371;28;20403;-88
2022/01/20 06:00:25;;;;;;;28.40;2.33;;;;;;;-141.50;100.00;63355.56;5014864;28;20042;-87
2022/01/20 06:05:39;;;;;;;27.67;2.70;;;;;;;-141.50;100.00;63355.56;5014977;28;20542;-86
2022/01/20 06:08:06;;;;;;;16.60;2.72;;;;;;;-141.50;100.00;63355.56;5014525;28;20554;-86
2022/01/20 06:10:33;;;;;;;32.13;2.47;;;;;;;-141.50;100.00;63355.56;5016326;28;20049;-82
2022/01/20 06:13:00;;;;;;;21.50;3.03;;;;;;;-141.50;100.00;63355.56;4998242;28;20156;-84
2022/01/20 06:15:27;;;;;;;20.83;2.20;;;;;;;-141.50;100.00;63355.56;4998082;28;20089;-84
2022/01/20 06:17:54;;;;;;;28.27;3.70;;;;;;;-141.50;100.00;63355.56;5014501;28;20050;-86
2022/01/20 06:20:20;;;;;;;17.70;2.63;;;;;;;-141.50;100.00;63355.56;4999085;28;20050;-84
2022/01/20 06:22:47;;;;;;;31.95;3.38;;;;;;;-141.50;100.00;63355.56;5023545;28;20053;-84
2022/01/20 06:25:14;;;;;;;20.52;2.28;;;;;;;-141.50;100.00;63355.56;5018080;28;20101;-84
2022/01/20 06:27:40;;;;;;;30.63;2.95;;;;;;;-141.50;100.00;63355.56;5034296;28;20037;-85
2022/01/20 06:30:08;;;;;;;21.80;3.40;;;;;;;-141.50;100.00;63355.56;5020746;28;20574;-81
2022/01/20 06:32:34;;;;;;;27.30;2.95;;;;;;;-141.50;100.00;63355.56;5003934;28;20046;-84
2022/01/20 06:35:01;;;;;;;23.73;2.45;;;;;;;-141.50;100.00;63355.56;5018220;28;20052;-84
2022/01/20 06:37:28;;;;;;;19.67;2.47;;;;;;;-141.50;100.00;63355.56;4999681;28;20045;-84
2022/01/20 06:39:54;;;;;;;20.67;2.08;;;;;;;-141.50;100.00;63355.56;5017723;28;20056;-83
2022/01/20 06:42:21;;;;;;;21.48;2.58;;;;;;;-141.50;100.00;63355.56;5000312;28;20041;-83
2022/01/20 06:44:50;;;;;;;23.33;2.40;;;;;;;-141.50;100.00;63355.56;5000212;28;20081;-82
2022/01/20 06:47:19;;;;;;;15.73;2.42;;;;;;;-141.50;100.00;63355.56;5013299;28;20050;-83
2022/01/20 06:49:46;;;;;;;24.70;2.53;;;;;;;-141.50;100.00;63355.56;5013167;28;20136;-82
2022/01/20 06:52:12;;;;;;;25.52;2.92;;;;;;;-141.50;100.00;63355.56;5028902;28;20053;-84
2022/01/20 06:54:39;;;;;;;28.80;2.72;;;;;;;-141.50;100.00;63355.56;5021055;28;20045;-83
2022/01/20 06:57:16;;;;;;;24.90;2.65;;;;;;;-141.50;100.00;63355.56;5003308;28;20054;-85
2022/01/20 06:59:43;;;;;;;24.90;2.45;;;;;;;-141.50;100.00;63355.56;5017778;28;20085;-83
2022/01/20 07:02:10;;;;;;;20.85;2.55;;;;;;;-141.50;100.00;63355.56;5018197;28;20447;-85
2022/01/20 07:04:37;;;;;;;18.20;2.35;;;;;;;-141.50;100.00;63355.56;5016245;28;20110;-83
2022/01/20 07:07:05;;;;;;;16.23;2.55;;;;;;;-141.50;100.00;63355.56;4999029;28;20490;-83
2022/01/20 07:09:32;;;;;;;27.15;2.78;;;;;;;-141.50;100.00;63355.56;4998768;28;20054;-85
2022/01/20 07:12:00;;;;;;;20.20;2.35;;;;;;;-141.50;100.00;63355.56;5015726;28;20419;-83
2022/01/20 07:14:26;;;;;;;18.00;1.63;;;;;;;-141.50;100.00;63355.56;5015535;28;20073;-82
2022/01/20 07:16:53;;;;;;;23.05;2.47;;;;;;;-141.50;100.00;63355.56;4997172;28;20196;-85
2022/01/20 07:19:20;;;;;;;21.50;2.42;;;;;;;-141.50;100.00;63355.56;5014653;28;20278;-84
2022/01/20 07:21:46;;;;;;;13.25;2.30;;;;;;;-141.50;100.00;63355.56;4997439;28;20093;-84
2022/01/20 07:24:13;;;;;;;23.83;2.28;;;;;;;-141.50;100.00;63355.56;5013122;28;20165;-83
2022/01/20 07:26:40;;;;;;;14.73;2.70;;;;;;;-141.50;100.00;63355.56;5013624;28;20062;-84
2022/01/20 07:29:06;;;;;;;18.20;2.42;;;;;;;-141.50;100.00;63355.56;4995657;28;20123;-84
2022/01/20 07:31:33;;;;;;;17.48;2.35;;;;;;;-141.50;100.00;63355.56;4995829;28;20064;-84
2022/01/20 07:33:59;;;;;;;19.73;2.20;;;;;;;-141.50;100.00;63355.56;4994328;28;20082;-85
2022/01/20 07:36:26;;;;;;;18.30;2.92;;;;;;;-141.50;100.00;63355.56;4995227;28;20084;-81
2022/01/20 07:38:53;;;;;;;16.58;2.30;;;;;;;-141.50;100.00;63355.56;4991216;28;20054;-84
2022/01/20 07:41:20;;;;;;;9.25;1.42;;;;;;;-141.50;100.00;63355.56;4995822;28;20227;-82
2022/01/20 07:43:46;;;;;;;7.70;0.95;;;;;;;-141.50;100.00;63355.56;4993109;28;20047;-79
2022/01/20 07:46:13;;;;;;;11.68;1.40;;;;;;;-141.50;100.00;63355.56;4996904;28;20050;-80
2022/01/20 07:48:39;;;;;;;12.32;1.33;;;;;;;-141.50;100.00;63355.56;4997745;28;20287;-83
2022/01/20 07:51:06;;;;;;;12.10;1.55;;;;;;;-141.50;100.00;63355.56;5003561;28;20050;-79
2022/01/20 07:53:34;;;;;;;13.52;1.30;;;;;;;-141.50;100.00;63355.56;5002238;28;20053;-79
2022/01/20 07:56:01;;;;;;;12.75;1.83;;;;;;;-141.50;100.00;63355.56;5002999;28;20046;-78
2022/01/20 07:58:27;;;;;;;14.77;2.10;;;;;;;-141.50;100.00;63355.56;5020605;28;20050;-80
2022/01/20 08:00:54;;;;;;;15.77;2.30;;;;;;;-141.50;100.00;63355.56;5014702;28;20057;-78
2022/01/20 08:03:24;;;;;;;10.25;1.70;;;;;;;-141.50;100.00;63355.56;4997297;28;20054;-78
2022/01/20 08:05:51;;;;;;;11.57;1.90;;;;;;;-141.50;100.00;63355.56;4980942;28;20469;-77
2022/01/20 08:08:18;;;;;;;25.05;2.97;;;;;;;-141.50;100.00;63355.56;4992873;28;20050;-81
2022/01/20 08:10:45;;;;;;;13.90;1.75;;;;;;;-141.50;100.00;63355.56;4974315;28;20060;-79
2022/01/20 08:13:11;;;;;;;14.10;1.85;;;;;;;-141.50;100.00;63355.56;4977457;28;20072;-81
2022/01/20 08:15:38;;;;;;;10.52;1.55;;;;;;;-141.50;100.00;63355.56;4995203;28;20054;-79
2022/01/20 08:18:06;;;;;;;7.40;0.93;;;;;;;-141.50;100.00;63355.56;4974745;28;20085;-80
2022/01/20 08:20:33;;;;;;;14.18;1.95;;;;;;;-141.50;100.00;63355.56;4998609;28;20054;-79
2022/01/20 08:23:00;;;;;;;18.55;2.05;;;;;;;-141.50;100.00;63355.56;4997589;28;20050;-80
2022/01/20 08:25:26;;;;;;;14.20;2.33;;;;;;;-141.50;100.00;63355.56;5011939;28;20045;-79
2022/01/20 08:27:54;;;;;;;13.05;1.77;;;;;;;-141.50;100.00;63355.56;5011053;28;20081;-79
2022/01/20 08:30:22;;;;;;;11.23;1.30;;;;;;;-141.50;100.00;63355.56;5014870;28;20553;-79
2022/01/20 08:32:49;;;;;;;8.93;1.35;;;;;;;-141.50;100.00;63355.56;5030150;28;20140;-78
2022/01/20 08:35:18;;;;;;;9.13;1.20;;;;;;;-141.50;100.00;63355.56;5029575;28;20076;-78
2022/01/20 08:37:45;;;;;;;11.63;1.38;;;;;;;-141.50;100.00;63355.56;5031516;28;20107;-78
2022/01/20 08:40:18;;;;;;;14.25;1.50;;;;;;;-141.50;100.00;63355.56;5019677;28;20054;-78
2022/01/20 08:42:47;;;;;;;14.32;1.50;;;;;;;-141.50;100.00;63355.56;5009542;28;20053;-78
2022/01/20 08:45:16;;;;;;;14.85;1.77;;;;;;;-141.50;100.00;63355.56;4990529;28;20482;-80
2022/01/20 08:47:43;;;;;;;13.50;1.50;;;;;;;-141.50;100.00;63355.56;5010822;28;20081;-79
2022/01/20 08:50:11;;;;;;;14.48;1.98;;;;;;;-141.50;100.00;63355.56;5011527;28;20096;-80
2022/01/20 08:52:43;;;;;;;15.25;1.95;;;;;;;-141.50;100.00;63355.56;5029393;28;20049;-78
2022/01/20 08:55:10;;;;;;;14.65;1.90;;;;;;;-141.50;100.00;63355.56;5028896;28;20053;-78
2022/01/20 08:57:37;;;;;;;20.25;1.70;;;;;;;-141.50;100.00;63355.56;5031219;28;20054;-79
2022/01/20 09:00:05;;;;;;;16.85;1.98;;;;;;;-141.50;100.00;63355.56;5018976;28;20458;-78
2022/01/20 09:02:32;;;;;;;17.60;2.13;;;;;;;-141.50;100.00;63355.56;5010754;28;20517;-80
2022/01/20 09:04:59;;;;;;;15.00;1.70;;;;;;;-141.50;100.00;63355.56;4993368;28;20046;-78
2022/01/20 09:07:27;;;;;;;11.60;1.70;;;;;;;-141.50;100.00;63355.56;4992472;28;20050;-78
2022/01/20 09:09:55;;;;;;;24.42;2.08;;;;;;;-141.50;100.00;63355.56;4992195;28;20100;-78
2022/01/20 09:17:51;;;;;;;17.17;1.70;;;;;;;-141.50;100.00;63355.56;5010134;28;20078;-78
2022/01/20 09:20:18;;;;;;;14.25;1.77;;;;;;;-141.50;100.00;63355.56;4992710;28;20768;-77
2022/01/20 09:22:44;;;;;;;13.50;1.52;;;;;;;-141.50;100.00;63355.56;5010295;28;20046;-78
2022/01/20 09:25:12;;;;;;;12.95;2.33;;;;;;;-141.50;100.00;63355.56;5010300;28;20058;-79
2022/01/20 09:27:39;;;;;;;18.88;1.95;;;;;;;-141.50;100.00;63355.56;5010182;28;20100;-80
2022/01/20 09:30:07;;;;;;;19.38;2.25;;;;;;;-141.50;100.00;63355.56;5009771;28;20148;-81
2022/01/20 09:32:37;;;;;;;14.85;2.15;;;;;;;-141.50;100.00;63355.56;5009818;28;20093;-79
2022/01/20 09:35:05;;;;;;;18.95;2.08;;;;;;;-141.50;100.00;63355.56;4993437;28;20088;-79
2022/01/20 09:37:34;;;;;;;19.23;2.08;;;;;;;-141.50;100.00;63355.56;5011112;28;20088;-79
2022/01/20 09:40:00;;;;;;;12.35;2.08;;;;;;;-141.50;100.00;63355.56;4993703;28;20112;-79
2022/01/20 09:42:27;;;;;;;16.90;2.20;;;;;;;-141.50;100.00;63355.56;4992651;28;20462;-79
2022/01/20 09:44:54;;;;;;;21.48;2.15;;;;;;;-141.50;100.00;63355.56;5014193;28;20042;-77
2022/01/20 09:47:22;;;;;;;22.95;2.28;;;;;;;-141.50;100.00;63355.56;5015753;28;20082;-81
2022/01/20 09:49:48;;;;;;;12.40;1.65;;;;;;;-141.50;100.00;63355.56;5018217;28;20084;-79
2022/01/20 09:52:15;;;;;;;13.90;1.80;;;;;;;-141.50;100.00;63355.56;5012673;28;20096;-79
2022/01/20 09:54:42;;;;;;;12.98;1.85;;;;;;;-141.50;100.00;63355.56;4995797;28;20446;-78
2022/01/20 09:57:08;;;;;;;15.55;2.20;;;;;;;-141.50;100.00;63355.56;5013579;28;20042;-79
2022/01/20 09:59:35;;;;;;;14.57;2.50;;;;;;;-141.50;100.00;63355.56;5010741;28;20084;-80
2022/01/20 10:02:02;;;;;;;16.88;2.47;;;;;;;-141.50;100.00;63355.56;5013323;28;20367;-79
2022/01/20 10:04:30;;;;;;;20.45;3.20;;;;;;;-141.50;100.00;63355.56;5014298;28;20046;-80
2022/01/20 10:07:15;;;;;;;12.80;2.40;;;;;;;-141.50;100.00;63355.56;5011672;28;20285;-79
2022/01/20 10:09:48;;;;;;;12.75;2.08;;;;;;;-141.50;100.00;63355.56;5030776;28;20049;-80
2022/01/20 10:12:17;;;;;;;15.93;2.38;;;;;;;-141.50;100.00;63355.56;5028092;28;20647;-80
2022/01/20 10:14:47;;;;;;;13.65;2.10;;;;;;;-141.50;100.00;63355.56;5019267;28;20465;-79
2022/01/20 10:17:18;;;;;;;9.75;1.80;;;;;;;-141.50;100.00;63355.56;4996184;28;20057;-78
2022/01/20 10:19:45;;;;;;;14.20;2.00;;;;;;;-141.50;100.00;63355.56;5012363;28;20132;-78
2022/01/20 10:22:14;;;;;;;15.20;2.05;;;;;;;-141.50;100.00;63355.56;5012713;28;20054;-78
2022/01/20 10:24:42;;;;;;;15.95;2.28;;;;;;;-141.50;100.00;63355.56;5023110;28;20088;-79
2022/01/20 10:27:12;;;;;;;16.95;3.15;;;;;;;-141.50;100.00;63355.56;5017982;28;20054;-80
2022/01/20 10:29:39;;;;;;;12.80;2.03;;;;;;;-141.50;100.00;63355.56;4996839;28;20426;-78
2022/01/20 10:32:18;;;;;;;9.07;1.88;;;;;;;-141.50;100.00;63355.56;5013524;28;20049;-79
2022/01/20 10:34:45;;;;;;;19.35;2.45;;;;;;;-141.50;100.00;63355.56;5013167;28;20140;-78
2022/01/20 10:37:16;;;;;;;11.18;1.70;;;;;;;-141.50;100.00;63355.56;5014409;28;20084;-78
2022/01/20 10:39:46;;;;;;;11.98;1.92;;;;;;;-141.50;100.00;63355.56;4996207;28;20050;-79
2022/01/20 10:42:16;;;;;;;17.20;2.38;;;;;;;-141.50;100.00;63355.56;4996030;28;20050;-77
2022/01/20 10:44:47;;;;;;;14.20;1.90;;;;;;;-141.50;100.00;63355.56;5013469;28;20104;-79
2022/01/20 10:47:32;;;;;;;12.10;2.10;;;;;;;-141.50;100.00;63355.56;5012899;28;20049;-80
2022/01/20 10:50:16;;;;;;;18.55;2.95;;;;;;;-141.50;100.00;63355.56;5012233;28;20526;-77
2022/01/20 10:52:44;;;;;;;11.95;1.90;;;;;;;-141.50;100.00;63355.56;5012345;28;20053;-79
2022/01/20 10:55:21;;;;;;;14.80;2.30;;;;;;;-141.50;100.00;63355.56;4995315;28;20081;-80
2022/01/20 10:57:53;;;;;;;14.45;1.85;;;;;;;-141.50;100.00;63355.56;5012899;28;20050;-77
2022/01/20 11:00:22;;;;;;;18.30;2.15;;;;;;;-141.50;100.00;63355.56;5011961;28;20116;-79
2022/01/20 11:02:51;;;;;;;23.90;2.88;;;;;;;-141.50;100.00;63355.56;5005580;28;20050;-79
2022/01/20 11:05:20;;;;;;;17.08;2.10;;;;;;;-141.50;100.00;63355.56;5007284;28;20128;-79
2022/01/20 11:07:47;;;;;;;15.65;2.30;;;;;;;-141.50;100.00;63355.56;5010111;28;20133;-78
2022/01/20 11:10:14;;;;;;;18.55;2.40;;;;;;;-141.50;100.00;63355.56;5012748;28;20507;-78
2022/01/20 11:12:41;;;;;;;21.35;2.45;;;;;;;-141.50;100.00;63355.56;5012166;28;20166;-79
2022/01/20 11:15:12;;;;;;;20.48;2.55;;;;;;;-141.50;100.00;63355.56;5012363;28;20471;-80
2022/01/20 11:17:42;;;;;;;20.10;3.17;;;;;;;-141.50;100.00;63355.56;5007621;28;20108;-80
2022/01/20 11:20:15;;;;;;;17.30;1.83;;;;;;;-141.50;100.00;63355.56;4993204;28;20046;-79
2022/01/20 11:22:54;;;;;;;19.98;2.17;;;;;;;-141.50;100.00;63355.56;4994591;28;20050;-79
2022/01/20 11:25:23;;;;;;;13.40;2.22;;;;;;;-141.50;100.00;63355.56;5011605;28;20045;-80
2022/01/20 11:28:00;;;;;;;16.88;2.10;;;;;;;-141.50;100.00;63355.56;5012223;28;20107;-79
2022/01/20 11:30:29;;;;;;;16.10;2.00;;;;;;;-141.50;100.00;63355.56;5011439;28;20494;-80
2022/01/20 11:32:58;;;;;;;25.85;3.08;;;;;;;-141.50;100.00;63355.56;5011847;28;20491;-80
2022/01/20 11:35:39;;;;;;;15.93;2.33;;;;;;;-141.50;100.00;63355.56;5010982;28;20049;-79
2022/01/20 11:38:06;;;;;;;19.10;2.00;;;;;;;-141.50;100.00;63355.56;5012688;28;20046;-78
2022/01/20 11:40:35;;;;;;;21.45;3.00;;;;;;;-141.50;100.00;63355.56;5013352;28;20304;-79
2022/01/20 11:43:11;;;;;;;15.57;2.40;;;;;;;-141.50;100.00;63355.56;5013864;28;20096;-80
2022/01/20 11:45:40;;;;;;;17.58;2.35;;;;;;;-141.50;100.00;63355.56;5011071;28;20042;-80
2022/01/20 11:48:21;;;;;;;18.33;2.35;;;;;;;-141.50;100.00;63355.56;5009365;28;20074;-78
2022/01/20 11:51:05;;;;;;;22.98;2.50;;;;;;;-141.50;100.00;63355.56;4992355;28;20562;-78
2022/01/20 11:53:31;;;;;;;19.02;2.45;;;;;;;-141.50;100.00;63355.56;5010640;28;20050;-80
2022/01/20 11:55:58;;;;;;;24.63;2.75;;;;;;;-141.50;100.00;63355.56;5026793;28;20107;-80
2022/01/20 11:58:26;;;;;;;25.00;2.05;;;;;;;-141.50;100.00;63355.56;5028954;28;20636;-80
2022/01/20 12:01:00;;;;;;;25.50;2.47;;;;;;;-141.50;100.00;63355.56;5016092;28;20262;-79
2022/01/20 12:03:28;;;;;;;14.88;1.75;;;;;;;-141.50;100.00;63355.56;5035543;28;20049;-78
2022/01/20 12:06:14;;;;;;;16.45;2.05;;;;;;;-141.50;100.00;63355.56;5025613;28;20060;-79
2022/01/20 12:08:57;;;;;;;26.92;2.78;;;;;;;-141.50;100.00;63355.56;5011750;28;20130;-79
2022/01/20 12:11:41;;;;;;;20.13;2.50;;;;;;;-141.50;100.00;63355.56;5012771;28;20509;-82
2022/01/20 12:14:09;;;;;;;20.65;2.50;;;;;;;-141.50;100.00;63355.56;5011566;28;20053;-81
2022/01/20 12:16:36;;;;;;;14.00;2.22;;;;;;;-141.50;100.00;63355.56;4994701;28;20499;-81
2022/01/20 12:19:09;;;;;;;16.58;1.95;;;;;;;-141.50;100.00;63355.56;5010519;28;20046;-80
2022/01/20 12:21:37;;;;;;;14.27;2.40;;;;;;;-141.50;100.00;63355.56;5011030;28;20065;-82
2022/01/20 12:24:05;;;;;;;15.68;2.30;;;;;;;-141.50;100.00;63355.56;4993430;28;20196;-82